createdAt,value
2022-08-26T00:03:46.684Z,100175.10
2022-08-26T00:08:48.637Z,100170.72
2022-08-26T00:13:50.663Z,100161.89
2022-08-26T00:19:11.094Z,100156.98
2022-08-26T00:24:13.453Z,100157.61
2022-08-26T00:29:15.914Z,100154.71
2022-08-26T00:34:19.386Z,100149.38
2022-08-26T00:39:22.351Z,100149.42
2022-08-26T00:44:24.718Z,100150.20
2022-08-26T00:49:47.906Z,100147.21
2022-08-26T00:55:20.139Z,100142.48
2022-08-26T01:00:25.935Z,100141.85
2022-08-26T01:05:28.884Z,100139.23
2022-08-26T01:10:32.590Z,100139.17
2022-08-26T01:15:41.837Z,100136.93
2022-08-26T01:21:06.420Z,100138.44
2022-08-26T01:26:23.115Z,100142.21
2022-08-26T01:31:29.920Z,100146.88
2022-08-26T01:36:32.185Z,100142.05
2022-08-26T01:41:36.151Z,100140.63
2022-08-26T01:46:38.246Z,100141.52
2022-08-26T01:51:43.925Z,100139.81
2022-08-26T01:56:47.049Z,100141.69
2022-08-26T02:01:50.151Z,100143.52
2022-08-26T02:06:56.542Z,100143.85
2022-08-26T02:12:01.665Z,100139.35
2022-08-26T02:17:04.391Z,100136.89
2022-08-26T02:22:15.792Z,100139.20
2022-08-26T02:27:24.650Z,100134.88
2022-08-26T02:32:27.123Z,100136.30
2022-08-26T02:37:31.096Z,100136.02
2022-08-26T02:42:33.238Z,100134.48
2022-08-26T02:47:35.422Z,100131.52
2022-08-26T02:52:37.415Z,100133.02
2022-08-26T02:57:39.969Z,100128.67
2022-08-26T03:02:42.029Z,100128.56
2022-08-26T03:07:44.312Z,100123.64
2022-08-26T03:12:48.259Z,100126.20
2022-08-26T03:17:50.513Z,100125.86
2022-08-26T03:22:53.211Z,100125.31
2022-08-26T03:27:59.532Z,100115.63
2022-08-26T03:33:02.453Z,100114.23
2022-08-26T03:38:06.792Z,100109.15
2022-08-26T03:43:10.260Z,100106.80
2022-08-26T03:48:12.687Z,100108.66
2022-08-26T03:53:14.775Z,100109.89
2022-08-26T03:58:16.772Z,100108.55
2022-08-26T04:03:41.459Z,100111.08
2022-08-26T04:08:44.784Z,100109.81
2022-08-26T04:13:47.207Z,100115.16
2022-08-26T04:18:49.759Z,100112.90
2022-08-26T04:23:52.043Z,100110.65
2022-08-26T04:28:55.237Z,100112.05
2022-08-26T04:33:57.245Z,100114.55
2022-08-26T04:39:02.329Z,100118.09
2022-08-26T04:44:06.022Z,100117.58
2022-08-26T04:49:09.309Z,100118.54
2022-08-26T04:54:13.805Z,100116.13
2022-08-26T04:59:18.781Z,100108.57
2022-08-26T05:04:21.482Z,100109.92
2022-08-26T05:09:25.125Z,100109.08
2022-08-26T05:14:27.665Z,100112.22
2022-08-26T05:19:30.531Z,100119.54
2022-08-26T05:24:32.662Z,100124.48
2022-08-26T05:29:35.389Z,100125.48
2022-08-26T05:34:37.737Z,100132.13
2022-08-26T05:39:41.254Z,100120.77
2022-08-26T05:44:55.619Z,100117.86
2022-08-26T05:49:58.682Z,100116.09
2022-08-26T05:55:01.960Z,100110.94
2022-08-26T06:00:04.740Z,100109.70
2022-08-26T06:05:27.858Z,100104.28
2022-08-26T06:10:33.020Z,100108.01
2022-08-26T06:15:43.492Z,100111.84
2022-08-26T06:20:54.571Z,100111.21
2022-08-26T06:26:00.505Z,100110.44
2022-08-26T06:31:02.708Z,100115.79
2022-08-26T06:36:05.001Z,100120.27
2022-08-26T06:41:11.557Z,100123.05
2022-08-26T06:46:16.861Z,100119.93
2022-08-26T06:51:22.437Z,100120.70
2022-08-26T06:56:32.885Z,100116.16
2022-08-26T07:01:44.207Z,100112.39
2022-08-26T07:06:53.902Z,100110.66
2022-08-26T07:12:00.331Z,100113.51
2022-08-26T07:17:04.137Z,100116.73
2022-08-26T07:22:08.670Z,100114.40
2022-08-26T07:27:19.340Z,100121.14
2022-08-26T07:32:23.982Z,100121.38
2022-08-26T07:37:26.869Z,100125.05
2022-08-26T07:42:34.043Z,100119.00
2022-08-26T07:47:40.096Z,100119.52
2022-08-26T07:52:43.137Z,100123.67
2022-08-26T07:57:46.531Z,100122.09
2022-08-26T08:02:53.332Z,100117.58
2022-08-26T08:08:00.853Z,100109.14
2022-08-26T08:13:22.922Z,100115.05
2022-08-26T08:18:28.753Z,100112.60
2022-08-26T08:23:33.838Z,100112.20
2022-08-26T08:28:39.562Z,100110.46
2022-08-26T08:33:47.165Z,100109.29
2022-08-26T08:38:51.058Z,100106.10
2022-08-26T08:43:53.921Z,100103.20
2022-08-26T08:48:59.929Z,100102.97
2022-08-26T08:54:04.514Z,100100.09
2022-08-26T08:59:28.565Z,100094.01
2022-08-26T09:04:56.347Z,100089.94
2022-08-26T09:10:18.281Z,100081.25
2022-08-26T09:15:40.107Z,100084.23
2022-08-26T09:20:56.705Z,100081.52
2022-08-26T09:26:03.812Z,100081.27
2022-08-26T09:31:29.997Z,100079.61
2022-08-26T09:36:41.164Z,100074.24
2022-08-26T09:41:43.488Z,100072.89
2022-08-26T09:46:57.267Z,100069.12
2022-08-26T09:52:07.078Z,100070.27
2022-08-26T09:57:16.424Z,100062.97
2022-08-26T10:02:34.474Z,100055.96
2022-08-26T10:07:44.563Z,100049.27
2022-08-26T10:13:11.216Z,100044.52
2022-08-26T10:18:24.221Z,100044.64
2022-08-26T10:23:30.895Z,100037.34
2022-08-26T10:28:46.133Z,100037.29
2022-08-26T10:33:49.997Z,100029.41
2022-08-26T10:38:52.774Z,100028.48
2022-08-26T10:43:59.625Z,100020.33
2022-08-26T10:49:06.857Z,100015.25
2022-08-26T10:54:38.529Z,100011.74
2022-08-26T10:59:58.926Z,100012.83
2022-08-26T11:05:04.037Z,100009.92
2022-08-26T11:10:21.215Z,100004.58
2022-08-26T11:15:26.778Z,99999.23
2022-08-26T11:20:34.664Z,99990.83
2022-08-26T11:25:56.253Z,99982.48
2022-08-26T11:30:59.666Z,99979.31
2022-08-26T11:36:11.522Z,99973.40
2022-08-26T11:41:19.474Z,99969.80
2022-08-26T11:46:35.231Z,99963.76
2022-08-26T11:51:41.905Z,99962.89
2022-08-26T11:56:49.016Z,99958.65
2022-08-26T12:01:56.051Z,99958.11
2022-08-26T12:07:00.515Z,99951.48
2022-08-26T12:12:13.641Z,99941.20
2022-08-26T12:17:26.811Z,99937.70
2022-08-26T12:22:35.590Z,99936.91
2022-08-26T12:27:41.524Z,99930.48
2022-08-26T12:32:52.830Z,99924.89
2022-08-26T12:38:01.910Z,99918.52
2022-08-26T12:43:05.544Z,99914.80
2022-08-26T12:48:10.367Z,99911.98
2022-08-26T12:53:24.765Z,99906.92
2022-08-26T12:58:36.162Z,99900.20
2022-08-26T13:03:46.632Z,99894.52
2022-08-26T13:08:53.434Z,99885.75
2022-08-26T13:14:02.425Z,99883.20
2022-08-26T13:19:21.632Z,99871.47
2022-08-26T13:24:40.504Z,99873.66
2022-08-26T13:29:42.584Z,99867.10
2022-08-26T13:34:57.638Z,99862.46
2022-08-26T13:40:04.345Z,99851.31
2022-08-26T13:45:06.791Z,99847.21
2022-08-26T13:50:08.958Z,99838.54
2022-08-26T13:55:14.711Z,99834.27
2022-08-26T14:00:18.270Z,99829.42
2022-08-26T14:05:22.767Z,99823.21
2022-08-26T14:10:25.398Z,99825.30
2022-08-26T14:15:27.817Z,99821.33
2022-08-26T14:20:33.262Z,99817.71
2022-08-26T14:25:35.333Z,99811.69
2022-08-26T14:30:40.570Z,99812.70
2022-08-26T14:35:48.879Z,99813.55
2022-08-26T14:40:52.573Z,99820.55
2022-08-26T14:45:54.888Z,99816.48
2022-08-26T14:51:00.241Z,99818.30
2022-08-26T14:56:05.271Z,99815.84
2022-08-26T15:01:15.858Z,99807.86
2022-08-26T15:06:29.060Z,99805.02
2022-08-26T15:11:31.167Z,99801.47
2022-08-26T15:16:36.832Z,99802.76
2022-08-26T15:21:39.184Z,99801.17
2022-08-26T15:26:41.400Z,99799.52
2022-08-26T15:31:48.472Z,99795.84
2022-08-26T15:36:54.598Z,99788.00
2022-08-26T15:41:59.256Z,99789.14
2022-08-26T15:47:01.246Z,99789.73
2022-08-26T15:52:05.467Z,99783.70
2022-08-26T15:57:19.767Z,99781.56
2022-08-26T16:02:31.799Z,99779.89
2022-08-26T16:07:40.198Z,99773.59
2022-08-26T16:12:42.881Z,99768.88
2022-08-26T16:17:48.662Z,99767.42
2022-08-26T16:22:52.078Z,99765.95
2022-08-26T16:27:59.718Z,99765.89
2022-08-26T16:33:08.329Z,99765.64
2022-08-26T16:38:15.333Z,99765.95
2022-08-26T16:43:43.991Z,99758.48
2022-08-26T16:48:48.048Z,99752.98
2022-08-26T16:54:01.656Z,99750.25
2022-08-26T16:59:16.757Z,99749.50
2022-08-26T17:04:23.980Z,99751.75
2022-08-26T17:09:32.188Z,99752.98
2022-08-26T17:14:34.924Z,99744.42
2022-08-26T17:19:46.748Z,99746.73
2022-08-26T17:24:58.947Z,99749.23
2022-08-26T17:30:01.505Z,99753.92
2022-08-26T17:35:04.931Z,99760.47
2022-08-26T17:40:12.103Z,99762.27
2022-08-26T17:45:14.659Z,99755.01
2022-08-26T17:50:17.928Z,99752.35
2022-08-26T17:55:20.069Z,99743.92
2022-08-26T18:00:26.061Z,99744.13
2022-08-26T18:05:29.411Z,99745.89
2022-08-26T18:10:31.303Z,99756.85
2022-08-26T18:15:33.471Z,99764.40
2022-08-26T18:20:39.980Z,99772.61
2022-08-26T18:25:43.727Z,99768.30
2022-08-26T18:30:47.607Z,99773.34
2022-08-26T18:35:49.467Z,99768.67
2022-08-26T18:40:52.041Z,99763.15
2022-08-26T18:46:08.483Z,99756.02
2022-08-26T18:51:19.112Z,99768.65
2022-08-26T18:56:21.677Z,99777.64
2022-08-26T19:01:27.352Z,99779.59
2022-08-26T19:06:32.847Z,99785.92
2022-08-26T19:11:37.202Z,99793.21
2022-08-26T19:16:43.155Z,99791.18
2022-08-26T19:21:48.639Z,99800.88
2022-08-26T19:26:59.435Z,99813.52
2022-08-26T19:32:02.996Z,99819.23
2022-08-26T19:37:05.600Z,99820.61
2022-08-26T19:42:21.300Z,99825.51
2022-08-26T19:47:23.979Z,99824.19
2022-08-26T19:52:30.157Z,99823.77
2022-08-26T19:57:34.030Z,99826.46
2022-08-26T20:02:36.750Z,99828.69
2022-08-26T20:07:39.001Z,99829.66
2022-08-26T20:12:41.949Z,99838.41
2022-08-26T20:17:44.464Z,99832.11
2022-08-26T20:22:46.947Z,99824.03
2022-08-26T20:27:50.792Z,99811.03
2022-08-26T20:32:53.149Z,99797.29
2022-08-26T20:37:55.248Z,99799.45
2022-08-26T20:42:57.420Z,99811.11
2022-08-26T20:47:59.759Z,99820.02
2022-08-26T20:53:01.821Z,99821.83
2022-08-26T20:58:04.734Z,99816.70
2022-08-26T21:03:07.440Z,99822.45
2022-08-26T21:08:09.780Z,99825.12
2022-08-26T21:13:14.270Z,99821.58
2022-08-26T21:18:16.303Z,99819.98
2022-08-26T21:23:21.191Z,99822.93
2022-08-26T21:28:24.250Z,99821.46
2022-08-26T21:33:28.337Z,99812.89
2022-08-26T21:38:36.347Z,99801.09
2022-08-26T21:43:43.198Z,99798.80
2022-08-26T21:48:51.207Z,99798.30
2022-08-26T21:53:56.512Z,99792.27
2022-08-26T21:59:00.216Z,99795.52
2022-08-26T22:04:08.432Z,99812.81
2022-08-26T22:09:11.835Z,99820.19
2022-08-26T22:14:15.588Z,99823.97
2022-08-26T22:19:26.186Z,99814.11
2022-08-26T22:24:40.313Z,99797.42
2022-08-26T22:29:50.625Z,99798.98
2022-08-26T22:34:55.803Z,99803.79
2022-08-26T22:40:08.260Z,99792.41
2022-08-26T22:45:14.065Z,99787.44
2022-08-26T22:50:25.611Z,99790.55
2022-08-26T22:55:27.516Z,99790.60
2022-08-26T23:00:34.156Z,99786.71
2022-08-26T23:05:38.337Z,99785.98
2022-08-26T23:10:46.290Z,99773.70
2022-08-26T23:15:48.499Z,99766.48
2022-08-26T23:20:51.527Z,99760.95
2022-08-26T23:25:54.702Z,99766.11
2022-08-26T23:30:57.737Z,99771.08
2022-08-26T23:36:06.770Z,99769.90
2022-08-26T23:41:11.508Z,99765.24
2022-08-26T23:46:15.021Z,99760.92
2022-08-26T23:51:59.280Z,99759.89
2022-08-26T23:57:03.464Z,99765.61
